sensor_id;sensor_type;location;lat;lon;timestamp;pressure;altitude;pressure_sealevel;temperature;humidity
49611;BME280;35515;48.766;9.176;2022-12-20T00:02:11;98920.59;;;4.11;97.64
49611;BME280;35515;48.766;9.176;2022-12-20T00:04:38;98920.06;;;4.08;97.78
49611;BME280;35515;48.766;9.176;2022-12-20T00:07:04;98919.16;;;3.99;98.36
49611;BME280;35515;48.766;9.176;2022-12-20T00:09:32;98916.00;;;4.04;98.73
49611;BME280;35515;48.766;9.176;2022-12-20T00:11:58;98922.47;;;4.11;98.06
49611;BME280;35515;48.766;9.176;2022-12-20T00:14:25;98908.13;;;4.02;97.96
49611;BME280;35515;48.766;9.176;2022-12-20T00:16:51;98910.41;;;3.97;98.74
49611;BME280;35515;48.766;9.176;2022-12-20T00:19:18;98901.38;;;3.98;99.02
49611;BME280;35515;48.766;9.176;2022-12-20T00:21:44;98891.50;;;3.98;98.86
49611;BME280;35515;48.766;9.176;2022-12-20T00:24:11;98898.38;;;4.01;98.64
49611;BME280;35515;48.766;9.176;2022-12-20T00:26:39;98889.41;;;4.10;97.62
49611;BME280;35515;48.766;9.176;2022-12-20T00:29:06;98876.41;;;4.15;97.80
49611;BME280;35515;48.766;9.176;2022-12-20T00:31:33;98873.81;;;4.06;97.55
49611;BME280;35515;48.766;9.176;2022-12-20T00:34:00;98888.53;;;4.01;98.29
49611;BME280;35515;48.766;9.176;2022-12-20T00:36:29;98885.84;;;4.01;98.08
49611;BME280;35515;48.766;9.176;2022-12-20T00:38:57;98887.31;;;3.96;98.32
49611;BME280;35515;48.766;9.176;2022-12-20T00:41:26;98876.47;;;3.88;98.95
49611;BME280;35515;48.766;9.176;2022-12-20T00:43:54;98867.75;;;3.85;99.23
49611;BME280;35515;48.766;9.176;2022-12-20T00:46:21;98868.75;;;3.84;99.22
49611;BME280;35515;48.766;9.176;2022-12-20T00:48:49;98885.38;;;3.88;99.45
49611;BME280;35515;48.766;9.176;2022-12-20T00:51:17;98885.59;;;3.95;98.58
49611;BME280;35515;48.766;9.176;2022-12-20T00:53:44;98888.72;;;3.90;99.29
49611;BME280;35515;48.766;9.176;2022-12-20T00:56:12;98882.22;;;3.93;99.21
49611;BME280;35515;48.766;9.176;2022-12-20T00:58:40;98866.13;;;3.93;98.84
49611;BME280;35515;48.766;9.176;2022-12-20T01:01:16;98868.44;;;3.88;99.30
49611;BME280;35515;48.766;9.176;2022-12-20T01:03:43;98877.09;;;3.99;98.38
49611;BME280;35515;48.766;9.176;2022-12-20T01:06:10;98886.44;;;3.95;98.95
49611;BME280;35515;48.766;9.176;2022-12-20T01:08:37;98882.22;;;3.93;98.70
49611;BME280;35515;48.766;9.176;2022-12-20T01:11:06;98901.22;;;3.81;98.99
49611;BME280;35515;48.766;9.176;2022-12-20T01:13:35;98891.09;;;3.75;99.66
49611;BME280;35515;48.766;9.176;2022-12-20T01:16:05;98901.91;;;3.83;99.44
49611;BME280;35515;48.766;9.176;2022-12-20T01:18:34;98893.88;;;3.83;99.38
49611;BME280;35515;48.766;9.176;2022-12-20T01:21:02;98901.00;;;3.75;100.00
49611;BME280;35515;48.766;9.176;2022-12-20T01:23:28;98911.94;;;3.81;99.85
49611;BME280;35515;48.766;9.176;2022-12-20T01:25:57;98910.25;;;3.80;99.76
49611;BME280;35515;48.766;9.176;2022-12-20T01:28:23;98898.41;;;3.83;99.56
49611;BME280;35515;48.766;9.176;2022-12-20T01:30:50;98903.13;;;3.89;98.80
49611;BME280;35515;48.766;9.176;2022-12-20T01:33:17;98892.94;;;3.93;99.07
49611;BME280;35515;48.766;9.176;2022-12-20T01:35:55;98892.56;;;3.88;98.76
49611;BME280;35515;48.766;9.176;2022-12-20T01:38:22;98894.72;;;3.84;99.31
49611;BME280;35515;48.766;9.176;2022-12-20T01:40:49;98892.78;;;3.76;99.75
49611;BME280;35515;48.766;9.176;2022-12-20T01:43:16;98887.13;;;3.79;99.45
49611;BME280;35515;48.766;9.176;2022-12-20T01:45:43;98879.41;;;3.76;99.75
49611;BME280;35515;48.766;9.176;2022-12-20T01:48:12;98883.38;;;3.72;99.75
49611;BME280;35515;48.766;9.176;2022-12-20T01:50:40;98886.13;;;3.80;99.51
49611;BME280;35515;48.766;9.176;2022-12-20T01:53:08;98870.44;;;3.85;98.68
49611;BME280;35515;48.766;9.176;2022-12-20T01:55:36;98875.03;;;3.75;99.04
49611;BME280;35515;48.766;9.176;2022-12-20T01:58:04;98883.53;;;3.89;98.84
49611;BME280;35515;48.766;9.176;2022-12-20T02:00:31;98871.81;;;3.90;98.34
49611;BME280;35515;48.766;9.176;2022-12-20T02:03:00;98852.13;;;3.81;98.52
49611;BME280;35515;48.766;9.176;2022-12-20T02:05:33;98857.97;;;3.76;99.64
49611;BME280;35515;48.766;9.176;2022-12-20T02:08:00;98854.97;;;3.79;99.30
49611;BME280;35515;48.766;9.176;2022-12-20T02:10:36;98841.56;;;3.79;99.12
49611;BME280;35515;48.766;9.176;2022-12-20T02:13:10;98853.13;;;3.80;99.37
49611;BME280;35515;48.766;9.176;2022-12-20T02:15:46;98852.34;;;3.88;98.35
49611;BME280;35515;48.766;9.176;2022-12-20T02:18:21;98853.38;;;3.87;98.76
49611;BME280;35515;48.766;9.176;2022-12-20T02:21:02;98845.63;;;3.83;98.43
49611;BME280;35515;48.766;9.176;2022-12-20T02:26:45;98838.94;;;3.88;98.86
49611;BME280;35515;48.766;9.176;2022-12-20T02:29:23;98845.78;;;4.00;97.29
49611;BME280;35515;48.766;9.176;2022-12-20T02:31:57;98826.63;;;3.95;97.52
49611;BME280;35515;48.766;9.176;2022-12-20T02:34:28;98833.19;;;3.82;98.31
49611;BME280;35515;48.766;9.176;2022-12-20T02:36:56;98831.22;;;3.84;98.74
49611;BME280;35515;48.766;9.176;2022-12-20T02:39:25;98832.38;;;3.82;98.33
49611;BME280;35515;48.766;9.176;2022-12-20T02:41:54;98832.06;;;3.85;97.57
49611;BME280;35515;48.766;9.176;2022-12-20T02:44:25;98835.59;;;3.85;97.93
49611;BME280;35515;48.766;9.176;2022-12-20T02:47:17;98822.19;;;3.85;97.26
49611;BME280;35515;48.766;9.176;2022-12-20T02:49:45;98825.03;;;3.84;97.27
49611;BME280;35515;48.766;9.176;2022-12-20T02:52:13;98829.91;;;3.89;97.32
49611;BME280;35515;48.766;9.176;2022-12-20T02:54:40;98817.88;;;3.93;97.07
49611;BME280;35515;48.766;9.176;2022-12-20T02:57:10;98813.16;;;3.87;97.14
49611;BME280;35515;48.766;9.176;2022-12-20T02:59:42;98806.88;;;3.96;97.23
49611;BME280;35515;48.766;9.176;2022-12-20T03:02:12;98809.63;;;4.04;96.21
49611;BME280;35515;48.766;9.176;2022-12-20T03:04:40;98808.25;;;4.00;96.62
49611;BME280;35515;48.766;9.176;2022-12-20T03:07:09;98787.09;;;3.97;96.89
49611;BME280;35515;48.766;9.176;2022-12-20T03:09:38;98793.53;;;4.04;96.78
49611;BME280;35515;48.766;9.176;2022-12-20T03:12:07;98796.22;;;4.04;96.75
49611;BME280;35515;48.766;9.176;2022-12-20T03:14:33;98792.22;;;4.08;96.43
49611;BME280;35515;48.766;9.176;2022-12-20T03:17:00;98803.22;;;4.05;96.75
49611;BME280;35515;48.766;9.176;2022-12-20T03:19:28;98806.22;;;4.02;96.73
49611;BME280;35515;48.766;9.176;2022-12-20T03:21:55;98787.31;;;4.04;97.17
49611;BME280;35515;48.766;9.176;2022-12-20T03:24:21;98795.50;;;4.02;97.41
49611;BME280;35515;48.766;9.176;2022-12-20T03:26:48;98777.66;;;4.11;96.19
49611;BME280;35515;48.766;9.176;2022-12-20T03:29:14;98780.50;;;4.09;96.46
49611;BME280;35515;48.766;9.176;2022-12-20T03:31:41;98770.50;;;4.19;96.27
49611;BME280;35515;48.766;9.176;2022-12-20T03:34:07;98776.56;;;4.22;95.59
49611;BME280;35515;48.766;9.176;2022-12-20T03:36:35;98768.84;;;4.18;96.13
49611;BME280;35515;48.766;9.176;2022-12-20T03:39:02;98767.56;;;4.31;95.62
49611;BME280;35515;48.766;9.176;2022-12-20T03:41:28;98773.53;;;4.25;95.54
49611;BME280;35515;48.766;9.176;2022-12-20T03:43:55;98774.69;;;4.22;95.93
49611;BME280;35515;48.766;9.176;2022-12-20T03:46:21;98774.28;;;4.35;95.26
49611;BME280;35515;48.766;9.176;2022-12-20T03:48:48;98771.94;;;4.32;95.32
49611;BME280;35515;48.766;9.176;2022-12-20T03:51:14;98775.97;;;4.36;95.35
49611;BME280;35515;48.766;9.176;2022-12-20T03:53:42;98784.84;;;4.37;95.65
49611;BME280;35515;48.766;9.176;2022-12-20T03:56:09;98774.63;;;4.32;95.73
49611;BME280;35515;48.766;9.176;2022-12-20T03:58:35;98771.94;;;4.32;95.96
49611;BME280;35515;48.766;9.176;2022-12-20T04:01:02;98769.38;;;4.30;96.26
49611;BME280;35515;48.766;9.176;2022-12-20T04:03:41;98765.09;;;4.38;95.97
49611;BME280;35515;48.766;9.176;2022-12-20T04:06:07;98765.91;;;4.38;96.03
49611;BME280;35515;48.766;9.176;2022-12-20T04:08:34;98762.59;;;4.44;95.55
49611;BME280;35515;48.766;9.176;2022-12-20T04:11:01;98758.59;;;4.48;95.71
49611;BME280;35515;48.766;9.176;2022-12-20T04:13:44;98750.53;;;4.40;96.19
49611;BME280;35515;48.766;9.176;2022-12-20T04:16:11;98751.47;;;4.31;96.12
49611;BME280;35515;48.766;9.176;2022-12-20T04:18:38;98741.72;;;4.30;96.55
49611;BME280;35515;48.766;9.176;2022-12-20T04:21:05;98740.41;;;4.34;95.86
49611;BME280;35515;48.766;9.176;2022-12-20T04:23:33;98748.78;;;4.31;96.39
49611;BME280;35515;48.766;9.176;2022-12-20T04:26:01;98748.47;;;4.34;96.34
49611;BME280;35515;48.766;9.176;2022-12-20T04:28:28;98741.13;;;4.10;97.18
49611;BME280;35515;48.766;9.176;2022-12-20T04:30:55;98748.78;;;4.05;98.05
49611;BME280;35515;48.766;9.176;2022-12-20T04:33:22;98753.81;;;4.08;98.02
49611;BME280;35515;48.766;9.176;2022-12-20T04:35:48;98763.16;;;4.22;97.31
49611;BME280;35515;48.766;9.176;2022-12-20T04:38:16;98763.88;;;4.32;96.84
49611;BME280;35515;48.766;9.176;2022-12-20T04:40:43;98733.16;;;4.26;97.37
49611;BME280;35515;48.766;9.176;2022-12-20T04:43:10;98725.00;;;4.36;96.89
49611;BME280;35515;48.766;9.176;2022-12-20T04:45:37;98733.44;;;4.41;96.74
49611;BME280;35515;48.766;9.176;2022-12-20T04:48:04;98726.53;;;4.39;96.96
49611;BME280;35515;48.766;9.176;2022-12-20T04:50:30;98723.16;;;4.37;96.91
49611;BME280;35515;48.766;9.176;2022-12-20T04:52:57;98721.47;;;4.35;97.12
49611;BME280;35515;48.766;9.176;2022-12-20T04:55:41;98726.75;;;4.45;97.04
49611;BME280;35515;48.766;9.176;2022-12-20T04:58:07;98731.72;;;4.75;95.54
49611;BME280;35515;48.766;9.176;2022-12-20T05:00:36;98727.13;;;4.59;95.13
49611;BME280;35515;48.766;9.176;2022-12-20T05:03:02;98732.59;;;4.49;95.74
49611;BME280;35515;48.766;9.176;2022-12-20T05:05:29;98731.91;;;4.39;96.94
49611;BME280;35515;48.766;9.176;2022-12-20T05:07:55;98719.94;;;4.33;96.90
49611;BME280;35515;48.766;9.176;2022-12-20T05:10:22;98716.28;;;4.34;97.04
49611;BME280;35515;48.766;9.176;2022-12-20T05:12:49;98712.59;;;4.35;97.38
49611;BME280;35515;48.766;9.176;2022-12-20T05:15:15;98702.84;;;4.34;97.58
49611;BME280;35515;48.766;9.176;2022-12-20T05:17:43;98701.38;;;4.40;97.03
49611;BME280;35515;48.766;9.176;2022-12-20T05:20:11;98706.13;;;4.54;96.65
49611;BME280;35515;48.766;9.176;2022-12-20T05:22:37;98705.59;;;4.50;96.95
49611;BME280;35515;48.766;9.176;2022-12-20T05:25:22;98699.97;;;4.62;96.63
49611;BME280;35515;48.766;9.176;2022-12-20T05:28:06;98693.63;;;4.71;95.63
49611;BME280;35515;48.766;9.176;2022-12-20T05:30:32;98690.94;;;4.71;95.68
49611;BME280;35515;48.766;9.176;2022-12-20T05:33:00;98689.94;;;4.72;96.02
49611;BME280;35515;48.766;9.176;2022-12-20T05:35:27;98697.31;;;4.78;95.62
49611;BME280;35515;48.766;9.176;2022-12-20T05:37:53;98694.00;;;4.84;95.24
49611;BME280;35515;48.766;9.176;2022-12-20T05:40:20;98695.34;;;4.89;94.70
49611;BME280;35515;48.766;9.176;2022-12-20T05:42:46;98688.63;;;4.84;95.08
49611;BME280;35515;48.766;9.176;2022-12-20T05:45:13;98686.13;;;4.91;94.83
49611;BME280;35515;48.766;9.176;2022-12-20T05:47:39;98693.34;;;4.91;94.75
49611;BME280;35515;48.766;9.176;2022-12-20T05:50:08;98672.25;;;5.04;94.40
49611;BME280;35515;48.766;9.176;2022-12-20T05:52:35;98680.75;;;4.83;95.14
49611;BME280;35515;48.766;9.176;2022-12-20T05:55:01;98668.13;;;4.75;95.84
49611;BME280;35515;48.766;9.176;2022-12-20T05:57:28;98667.16;;;4.84;95.62
49611;BME280;35515;48.766;9.176;2022-12-20T05:59:54;98664.63;;;4.83;95.38
49611;BME280;35515;48.766;9.176;2022-12-20T06:02:21;98661.63;;;4.86;95.24
49611;BME280;35515;48.766;9.176;2022-12-20T06:04:47;98658.13;;;4.94;95.05
49611;BME280;35515;48.766;9.176;2022-12-20T06:07:15;98665.53;;;5.00;94.58
49611;BME280;35515;48.766;9.176;2022-12-20T06:09:43;98664.16;;;4.96;94.79
49611;BME280;35515;48.766;9.176;2022-12-20T06:12:10;98666.31;;;4.84;95.48
49611;BME280;35515;48.766;9.176;2022-12-20T06:14:36;98672.53;;;4.93;94.73
49611;BME280;35515;48.766;9.176;2022-12-20T06:17:03;98677.88;;;4.84;94.86
49611;BME280;35515;48.766;9.176;2022-12-20T06:19:30;98679.88;;;4.82;95.34
49611;BME280;35515;48.766;9.176;2022-12-20T06:21:56;98678.22;;;4.81;95.32
49611;BME280;35515;48.766;9.176;2022-12-20T06:24:24;98676.22;;;4.92;94.91
49611;BME280;35515;48.766;9.176;2022-12-20T06:26:51;98676.22;;;4.92;94.89
49611;BME280;35515;48.766;9.176;2022-12-20T06:29:18;98669.84;;;4.84;95.29
49611;BME280;35515;48.766;9.176;2022-12-20T06:31:45;98675.72;;;4.80;95.77
49611;BME280;35515;48.766;9.176;2022-12-20T06:34:12;98686.94;;;4.75;95.86
49611;BME280;35515;48.766;9.176;2022-12-20T06:36:38;98692.78;;;4.71;96.73
49611;BME280;35515;48.766;9.176;2022-12-20T06:39:05;98694.25;;;4.65;97.13
49611;BME280;35515;48.766;9.176;2022-12-20T06:41:34;98695.13;;;4.65;96.82
49611;BME280;35515;48.766;9.176;2022-12-20T06:44:01;98688.91;;;4.65;97.05
49611;BME280;35515;48.766;9.176;2022-12-20T06:46:28;98691.59;;;4.65;97.58
49611;BME280;35515;48.766;9.176;2022-12-20T06:48:55;98687.63;;;4.77;97.10
49611;BME280;35515;48.766;9.176;2022-12-20T06:51:22;98685.13;;;4.84;96.76
49611;BME280;35515;48.766;9.176;2022-12-20T06:53:48;98682.91;;;4.88;96.36
49611;BME280;35515;48.766;9.176;2022-12-20T06:56:15;98676.56;;;4.97;95.64
49611;BME280;35515;48.766;9.176;2022-12-20T06:58:44;98679.25;;;5.05;95.53
49611;BME280;35515;48.766;9.176;2022-12-20T07:01:10;98671.25;;;5.13;94.51
49611;BME280;35515;48.766;9.176;2022-12-20T07:03:37;98660.84;;;5.27;93.77
49611;BME280;35515;48.766;9.176;2022-12-20T07:06:03;98666.38;;;5.33;93.30
49611;BME280;35515;48.766;9.176;2022-12-20T07:08:30;98672.59;;;5.42;92.90
49611;BME280;35515;48.766;9.176;2022-12-20T07:11:02;98667.56;;;5.47;92.59
49611;BME280;35515;48.766;9.176;2022-12-20T07:13:29;98673.28;;;5.44;92.48
49611;BME280;35515;48.766;9.176;2022-12-20T07:15:58;98668.56;;;5.38;92.69
49611;BME280;35515;48.766;9.176;2022-12-20T07:18:24;98667.56;;;5.47;92.51
49611;BME280;35515;48.766;9.176;2022-12-20T07:20:51;98671.09;;;5.48;92.19
49611;BME280;35515;48.766;9.176;2022-12-20T07:23:17;98674.97;;;5.45;92.34
49611;BME280;35515;48.766;9.176;2022-12-20T07:25:52;98673.94;;;5.55;91.84
49611;BME280;35515;48.766;9.176;2022-12-20T07:28:18;98664.53;;;5.50;91.86
49611;BME280;35515;48.766;9.176;2022-12-20T07:30:45;98670.94;;;5.49;92.58
49611;BME280;35515;48.766;9.176;2022-12-20T07:33:12;98673.94;;;5.55;92.09
49611;BME280;35515;48.766;9.176;2022-12-20T07:35:39;98668.41;;;5.48;91.76
49611;BME280;35515;48.766;9.176;2022-12-20T07:38:05;98668.25;;;5.41;92.05
49611;BME280;35515;48.766;9.176;2022-12-20T07:40:32;98668.38;;;5.40;92.26
49611;BME280;35515;48.766;9.176;2022-12-20T07:42:59;98666.56;;;5.40;92.15
49611;BME280;35515;48.766;9.176;2022-12-20T07:45:25;98658.50;;;5.40;92.51
49611;BME280;35515;48.766;9.176;2022-12-20T07:47:52;98664.22;;;5.45;91.95
49611;BME280;35515;48.766;9.176;2022-12-20T07:50:19;98667.56;;;5.39;92.65
49611;BME280;35515;48.766;9.176;2022-12-20T07:52:48;98660.19;;;5.49;92.33
49611;BME280;35515;48.766;9.176;2022-12-20T07:55:15;98669.75;;;5.52;92.00
49611;BME280;35515;48.766;9.176;2022-12-20T07:57:46;98662.19;;;5.47;91.98
49611;BME280;35515;48.766;9.176;2022-12-20T08:00:15;98659.66;;;5.46;92.38
49611;BME280;35515;48.766;9.176;2022-12-20T08:02:45;98665.38;;;5.51;92.11
49611;BME280;35515;48.766;9.176;2022-12-20T08:05:14;98673.25;;;5.52;92.34
49611;BME280;35515;48.766;9.176;2022-12-20T08:07:44;98669.22;;;5.57;92.24
49611;BME280;35515;48.766;9.176;2022-12-20T08:10:13;98666.03;;;5.78;91.07
49611;BME280;35515;48.766;9.176;2022-12-20T08:12:42;98664.16;;;5.78;91.18
49611;BME280;35515;48.766;9.176;2022-12-20T08:15:10;98664.47;;;5.92;90.59
49611;BME280;35515;48.766;9.176;2022-12-20T08:17:37;98660.13;;;5.91;90.86
49611;BME280;35515;48.766;9.176;2022-12-20T08:20:05;98648.34;;;5.92;90.52
49611;BME280;35515;48.766;9.176;2022-12-20T08:22:32;98640.59;;;5.97;90.46
49611;BME280;35515;48.766;9.176;2022-12-20T08:25:00;98648.66;;;5.97;90.48
49611;BME280;35515;48.766;9.176;2022-12-20T08:27:27;98650.88;;;6.01;90.42
49611;BME280;35515;48.766;9.176;2022-12-20T08:29:53;98651.03;;;6.08;89.90
49611;BME280;35515;48.766;9.176;2022-12-20T08:32:20;98643.47;;;6.12;89.35
49611;BME280;35515;48.766;9.176;2022-12-20T08:34:46;98633.91;;;6.09;89.60
49611;BME280;35515;48.766;9.176;2022-12-20T08:37:14;98634.19;;;6.14;89.48
49611;BME280;35515;48.766;9.176;2022-12-20T08:39:41;98627.47;;;6.18;89.08
49611;BME280;35515;48.766;9.176;2022-12-20T08:42:09;98627.13;;;6.22;88.77
49611;BME280;35515;48.766;9.176;2022-12-20T08:44:36;98627.44;;;6.27;88.99
49611;BME280;35515;48.766;9.176;2022-12-20T08:47:02;98632.81;;;6.27;89.02
49611;BME280;35515;48.766;9.176;2022-12-20T08:49:29;98623.38;;;6.31;88.53
49611;BME280;35515;48.766;9.176;2022-12-20T08:51:55;98627.41;;;6.35;88.36
49611;BME280;35515;48.766;9.176;2022-12-20T08:54:22;98620.66;;;6.39;88.11
49611;BME280;35515;48.766;9.176;2022-12-20T08:56:48;98618.41;;;6.51;87.26
49611;BME280;35515;48.766;9.176;2022-12-20T08:59:16;98613.22;;;6.49;87.40
49611;BME280;35515;48.766;9.176;2022-12-20T09:01:43;98619.91;;;6.53;86.85
49611;BME280;35515;48.766;9.176;2022-12-20T09:04:10;98612.34;;;6.49;87.23
49611;BME280;35515;48.766;9.176;2022-12-20T09:06:37;98618.91;;;6.46;87.73
49611;BME280;35515;48.766;9.176;2022-12-20T09:09:04;98609.84;;;6.47;88.09
49611;BME280;35515;48.766;9.176;2022-12-20T09:11:31;98607.81;;;6.49;88.17
49611;BME280;35515;48.766;9.176;2022-12-20T09:13:58;98616.53;;;6.51;88.02
49611;BME280;35515;48.766;9.176;2022-12-20T09:16:27;98614.84;;;6.59;86.99
49611;BME280;35515;48.766;9.176;2022-12-20T09:18:56;98610.84;;;6.55;87.18
49611;BME280;35515;48.766;9.176;2022-12-20T09:21:23;98600.00;;;6.63;87.08
49611;BME280;35515;48.766;9.176;2022-12-20T09:23:50;98601.97;;;6.69;86.78
49611;BME280;35515;48.766;9.176;2022-12-20T09:26:19;98606.28;;;6.78;86.21
49611;BME280;35515;48.766;9.176;2022-12-20T09:28:46;98617.75;;;6.80;86.10
49611;BME280;35515;48.766;9.176;2022-12-20T09:31:15;98607.91;;;6.88;85.43
49611;BME280;35515;48.766;9.176;2022-12-20T09:33:43;98608.84;;;7.03;84.67
49611;BME280;35515;48.766;9.176;2022-12-20T09:36:11;98610.72;;;6.94;84.91
49611;BME280;35515;48.766;9.176;2022-12-20T09:38:37;98603.81;;;7.00;84.87
49611;BME280;35515;48.766;9.176;2022-12-20T09:41:06;98597.31;;;6.86;85.68
49611;BME280;35515;48.766;9.176;2022-12-20T09:43:33;98591.13;;;6.85;85.68
49611;BME280;35515;48.766;9.176;2022-12-20T09:46:02;98591.34;;;6.99;84.86
49611;BME280;35515;48.766;9.176;2022-12-20T09:48:30;98600.06;;;7.01;84.85
49611;BME280;35515;48.766;9.176;2022-12-20T09:51:06;98588.34;;;6.94;85.16
49611;BME280;35515;48.766;9.176;2022-12-20T09:53:47;98581.66;;;6.90;85.67
49611;BME280;35515;48.766;9.176;2022-12-20T09:56:23;98590.38;;;6.92;85.56
49611;BME280;35515;48.766;9.176;2022-12-20T09:59:00;98575.44;;;6.89;86.00
49611;BME280;35515;48.766;9.176;2022-12-20T10:01:28;98580.66;;;6.91;86.11
49611;BME280;35515;48.766;9.176;2022-12-20T10:03:57;98576.28;;;6.90;86.18
49611;BME280;35515;48.766;9.176;2022-12-20T10:06:32;98576.28;;;6.90;86.10
49611;BME280;35515;48.766;9.176;2022-12-20T10:09:12;98566.50;;;6.89;86.57
49611;BME280;35515;48.766;9.176;2022-12-20T10:11:49;98561.44;;;6.94;86.27
49611;BME280;35515;48.766;9.176;2022-12-20T10:14:31;98558.03;;;7.00;85.19
49611;BME280;35515;48.766;9.176;2022-12-20T10:17:02;98573.25;;;7.08;84.75
49611;BME280;35515;48.766;9.176;2022-12-20T10:19:46;98567.34;;;7.12;84.65
49611;BME280;35515;48.766;9.176;2022-12-20T10:22:20;98564.28;;;7.15;84.42
49611;BME280;35515;48.766;9.176;2022-12-20T10:24:54;98554.81;;;7.19;84.22
49611;BME280;35515;48.766;9.176;2022-12-20T10:27:22;98551.47;;;7.17;84.62
49611;BME280;35515;48.766;9.176;2022-12-20T10:29:49;98546.16;;;7.09;85.21
49611;BME280;35515;48.766;9.176;2022-12-20T10:32:20;98548.47;;;7.12;85.02
49611;BME280;35515;48.766;9.176;2022-12-20T10:34:51;98548.28;;;7.14;84.56
49611;BME280;35515;48.766;9.176;2022-12-20T10:37:22;98533.63;;;7.16;84.81
49611;BME280;35515;48.766;9.176;2022-12-20T10:39:50;98535.31;;;7.17;85.00
49611;BME280;35515;48.766;9.176;2022-12-20T10:42:26;98537.91;;;7.26;84.20
49611;BME280;35515;48.766;9.176;2022-12-20T10:44:55;98529.16;;;7.24;84.05
49611;BME280;35515;48.766;9.176;2022-12-20T10:47:30;98537.44;;;7.22;84.40
49611;BME280;35515;48.766;9.176;2022-12-20T10:50:09;98541.34;;;7.19;83.92
49611;BME280;35515;48.766;9.176;2022-12-20T10:52:40;98536.25;;;7.25;83.84
49611;BME280;35515;48.766;9.176;2022-12-20T10:58:13;98531.94;;;7.15;84.73
49611;BME280;35515;48.766;9.176;2022-12-20T11:00:40;98528.94;;;7.10;85.22
49611;BME280;35515;48.766;9.176;2022-12-20T11:03:14;98517.84;;;7.13;84.84
49611;BME280;35515;48.766;9.176;2022-12-20T11:05:53;98521.47;;;7.20;84.17
49611;BME280;35515;48.766;9.176;2022-12-20T11:08:22;98515.69;;;7.24;84.26
49611;BME280;35515;48.766;9.176;2022-12-20T11:11:09;98505.28;;;7.20;84.46
49611;BME280;35515;48.766;9.176;2022-12-20T11:13:36;98511.44;;;7.29;84.07
49611;BME280;35515;48.766;9.176;2022-12-20T11:16:04;98513.97;;;7.31;84.41
49611;BME280;35515;48.766;9.176;2022-12-20T11:18:39;98503.66;;;7.34;84.51
49611;BME280;35515;48.766;9.176;2022-12-20T11:21:18;98504.09;;;7.38;84.38
49611;BME280;35515;48.766;9.176;2022-12-20T11:23:56;98497.97;;;7.44;83.96
49611;BME280;35515;48.766;9.176;2022-12-20T11:26:34;98489.22;;;7.42;85.22
49611;BME280;35515;48.766;9.176;2022-12-20T11:29:16;98488.31;;;7.35;86.21
49611;BME280;35515;48.766;9.176;2022-12-20T11:31:50;98490.34;;;7.33;86.15
49611;BME280;35515;48.766;9.176;2022-12-20T11:34:32;98484.22;;;7.39;85.80
49611;BME280;35515;48.766;9.176;2022-12-20T11:37:17;98491.28;;;7.40;85.40
49611;BME280;35515;48.766;9.176;2022-12-20T11:39:55;98494.63;;;7.42;84.97
49611;BME280;35515;48.766;9.176;2022-12-20T11:42:30;98490.53;;;7.46;83.96
49611;BME280;35515;48.766;9.176;2022-12-20T11:45:03;98486.47;;;7.50;84.96
49611;BME280;35515;48.766;9.176;2022-12-20T11:47:50;98471.66;;;7.46;85.57
49611;BME280;35515;48.766;9.176;2022-12-20T11:50:43;98469.81;;;7.47;85.89
49611;BME280;35515;48.766;9.176;2022-12-20T11:53:19;98454.47;;;7.47;84.90
49611;BME280;35515;48.766;9.176;2022-12-20T11:55:52;98468.63;;;7.49;85.16
49611;BME280;35515;48.766;9.176;2022-12-20T11:58:23;98451.31;;;7.59;83.16
49611;BME280;35515;48.766;9.176;2022-12-20T12:00:55;98453.44;;;7.63;82.47
49611;BME280;35515;48.766;9.176;2022-12-20T12:03:27;98444.41;;;7.71;81.61
49611;BME280;35515;48.766;9.176;2022-12-20T12:05:56;98445.59;;;7.98;79.57
49611;BME280;35515;48.766;9.176;2022-12-20T12:08:30;98453.78;;;7.90;80.09
49611;BME280;35515;48.766;9.176;2022-12-20T12:11:05;98456.31;;;7.92;80.23
49611;BME280;35515;48.766;9.176;2022-12-20T12:13:38;98444.84;;;7.90;79.65
49611;BME280;35515;48.766;9.176;2022-12-20T12:16:09;98432.78;;;7.85;79.78
49611;BME280;35515;48.766;9.176;2022-12-20T12:18:37;98434.63;;;7.85;79.68
49611;BME280;35515;48.766;9.176;2022-12-20T12:21:07;98444.50;;;7.78;80.87
49611;BME280;35515;48.766;9.176;2022-12-20T12:23:44;98435.31;;;7.72;81.06
49611;BME280;35515;48.766;9.176;2022-12-20T12:26:19;98426.56;;;7.70;81.47
49611;BME280;35515;48.766;9.176;2022-12-20T12:28:48;98424.88;;;7.69;81.45
49611;BME280;35515;48.766;9.176;2022-12-20T12:31:21;98422.47;;;7.74;80.91
49611;BME280;35515;48.766;9.176;2022-12-20T12:34:03;98426.09;;;7.81;80.42
49611;BME280;35515;48.766;9.176;2022-12-20T12:36:42;98422.41;;;8.04;79.41
49611;BME280;35515;48.766;9.176;2022-12-20T12:45:14;98414.69;;;8.01;78.76
49611;BME280;35515;48.766;9.176;2022-12-20T12:47:44;98414.44;;;7.96;79.38
49611;BME280;35515;48.766;9.176;2022-12-20T12:50:19;98416.16;;;8.03;79.90
49611;BME280;35515;48.766;9.176;2022-12-20T12:52:49;98408.53;;;8.07;78.76
49611;BME280;35515;48.766;9.176;2022-12-20T12:55:34;98389.84;;;8.06;78.50
49611;BME280;35515;48.766;9.176;2022-12-20T13:00:55;98376.47;;;8.19;77.88
49611;BME280;35515;48.766;9.176;2022-12-20T13:03:37;98374.72;;;8.11;78.36
49611;BME280;35515;48.766;9.176;2022-12-20T13:09:20;98365.69;;;8.19;78.37
49611;BME280;35515;48.766;9.176;2022-12-20T13:11:47;98359.63;;;8.17;78.10
49611;BME280;35515;48.766;9.176;2022-12-20T13:14:47;98360.28;;;8.19;77.60
49611;BME280;35515;48.766;9.176;2022-12-20T13:17:40;98362.97;;;8.19;77.61
49611;BME280;35515;48.766;9.176;2022-12-20T13:20:17;98357.78;;;8.17;78.15
49611;BME280;35515;48.766;9.176;2022-12-20T13:23:12;98362.78;;;8.20;78.25
49611;BME280;35515;48.766;9.176;2022-12-20T13:25:43;98371.28;;;8.17;78.47
49611;BME280;35515;48.766;9.176;2022-12-20T13:31:30;98361.25;;;8.11;78.16
49611;BME280;35515;48.766;9.176;2022-12-20T13:33:58;98356.03;;;8.10;78.56
49611;BME280;35515;48.766;9.176;2022-12-20T13:36:34;98359.31;;;8.27;77.95
49611;BME280;35515;48.766;9.176;2022-12-20T13:39:30;98356.88;;;8.32;78.11
49611;BME280;35515;48.766;9.176;2022-12-20T13:42:14;98369.63;;;8.45;77.38
49611;BME280;35515;48.766;9.176;2022-12-20T13:44:44;98368.31;;;8.34;77.32
49611;BME280;35515;48.766;9.176;2022-12-20T13:47:39;98359.53;;;8.25;77.82